createdAt,value
2024-01-06T00:01:25.750Z,-2.59
2024-01-06T00:04:38.256Z,-2.58
2024-01-06T00:07:29.765Z,-2.58
2024-01-06T00:10:23.607Z,-2.62
2024-01-06T00:13:15.376Z,-2.65
2024-01-06T00:16:05.352Z,-2.64
2024-01-06T00:18:54.927Z,-2.61
2024-01-06T00:21:45.875Z,-2.63
2024-01-06T00:24:36.795Z,-2.61
2024-01-06T00:27:29.404Z,-2.64
2024-01-06T00:30:18.832Z,-2.66
2024-01-06T00:33:13.802Z,-2.66
2024-01-06T00:36:04.073Z,-2.64
2024-01-06T00:38:53.214Z,-2.60
2024-01-06T00:41:43.057Z,-2.58
2024-01-06T00:44:35.567Z,-2.58
2024-01-06T00:47:25.316Z,-2.61
2024-01-06T00:50:23.644Z,-2.63
2024-01-06T00:53:13.403Z,-2.64
2024-01-06T00:56:07.308Z,-2.62
2024-01-06T00:59:07.971Z,-2.63
2024-01-06T01:01:58.664Z,-2.69
2024-01-06T01:04:42.363Z,-2.71
2024-01-06T01:07:31.799Z,-2.73
2024-01-06T01:10:24.649Z,-2.73
2024-01-06T01:13:14.007Z,-2.72
2024-01-06T01:16:06.132Z,-2.71
2024-01-06T01:18:58.758Z,-2.70
2024-01-06T01:21:55.992Z,-2.70
2024-01-06T01:24:45.250Z,-2.73
2024-01-06T01:27:37.006Z,-2.73
2024-01-06T01:30:40.658Z,-2.72
2024-01-06T01:33:34.442Z,-2.68
2024-01-06T01:36:29.505Z,-2.64
2024-01-06T01:39:18.987Z,-2.63
2024-01-06T01:42:17.403Z,-2.61
2024-01-06T01:44:59.551Z,-2.61
2024-01-06T01:47:56.086Z,-2.63
2024-01-06T01:50:47.613Z,-2.66
2024-01-06T01:53:37.796Z,-2.70
2024-01-06T01:56:34.583Z,-2.71
2024-01-06T01:59:23.595Z,-2.73
2024-01-06T02:03:05.438Z,-2.76
2024-01-06T02:05:39.643Z,-2.78
2024-01-06T02:08:30.493Z,-2.77
2024-01-06T02:11:22.890Z,-2.76
2024-01-06T02:14:12.236Z,-2.75
2024-01-06T02:17:02.085Z,-2.74
2024-01-06T02:19:51.416Z,-2.73
2024-01-06T02:22:41.171Z,-2.75
2024-01-06T02:25:32.288Z,-2.76
2024-01-06T02:28:23.763Z,-2.77
2024-01-06T02:31:16.487Z,-2.79
2024-01-06T02:34:08.920Z,-2.80
2024-01-06T02:37:06.842Z,-2.84
2024-01-06T02:39:58.986Z,-2.85
2024-01-06T02:42:51.328Z,-2.88
2024-01-06T02:45:45.002Z,-2.87
2024-01-06T02:48:34.498Z,-2.86
2024-01-06T02:51:25.556Z,-2.84
2024-01-06T02:54:21.149Z,-2.84
2024-01-06T02:57:09.332Z,-2.82
2024-01-06T03:00:02.229Z,-2.80
2024-01-06T03:02:51.775Z,-2.78
2024-01-06T03:05:43.265Z,-2.76
2024-01-06T03:08:37.228Z,-2.72
2024-01-06T03:11:16.908Z,-2.68
2024-01-06T03:14:07.266Z,-2.68
2024-01-06T03:16:59.305Z,-2.69
2024-01-06T03:19:49.129Z,-2.69
2024-01-06T03:22:39.595Z,-2.71
2024-01-06T03:25:32.244Z,-2.74
2024-01-06T03:28:22.213Z,-2.78
2024-01-06T03:31:13.182Z,-2.81
2024-01-06T03:35:04.941Z,-2.83
2024-01-06T03:37:14.774Z,-2.82
2024-01-06T03:40:10.134Z,-2.82
2024-01-06T03:43:02.181Z,-2.79
2024-01-06T03:45:51.652Z,-2.75
2024-01-06T03:48:41.390Z,-2.74
2024-01-06T03:51:38.475Z,-2.71
2024-01-06T03:54:27.957Z,-2.67
2024-01-06T03:57:19.624Z,-2.65
2024-01-06T04:00:28.807Z,-2.64
2024-01-06T04:03:22.406Z,-2.63
2024-01-06T04:06:12.044Z,-2.60
2024-01-06T04:09:02.609Z,-2.57
2024-01-06T04:12:02.805Z,-2.58
2024-01-06T04:14:52.362Z,-2.58
2024-01-06T04:17:41.816Z,-2.60
2024-01-06T04:20:33.678Z,-2.63
2024-01-06T04:23:26.102Z,-2.66
2024-01-06T04:26:19.523Z,-2.67
2024-01-06T04:29:09.082Z,-2.66
2024-01-06T04:32:00.960Z,-2.68
2024-01-06T04:34:51.648Z,-2.70
2024-01-06T04:37:41.319Z,-2.69
2024-01-06T04:40:32.424Z,-2.69
2024-01-06T04:43:22.797Z,-2.68
2024-01-06T04:46:40.720Z,-2.68
2024-01-06T04:49:34.896Z,-2.69
2024-01-06T04:52:24.179Z,-2.70
2024-01-06T04:55:13.368Z,-2.68
2024-01-06T04:58:02.864Z,-2.65
2024-01-06T05:00:54.095Z,-2.62
2024-01-06T05:03:32.849Z,-2.61
2024-01-06T05:06:52.244Z,-2.60
2024-01-06T05:09:41.397Z,-2.63
2024-01-06T05:12:36.910Z,-2.67
2024-01-06T05:15:26.347Z,-2.68
2024-01-06T05:18:15.718Z,-2.68
2024-01-06T05:21:05.820Z,-2.70
2024-01-06T05:23:55.392Z,-2.73
2024-01-06T05:26:44.715Z,-2.73
2024-01-06T05:29:35.413Z,-2.72
2024-01-06T05:32:27.245Z,-2.72
2024-01-06T05:35:17.619Z,-2.71
2024-01-06T05:38:16.017Z,-2.73
2024-01-06T05:41:07.768Z,-2.74
2024-01-06T05:43:59.016Z,-2.74
2024-01-06T05:46:52.121Z,-2.76
2024-01-06T05:49:44.637Z,-2.78
2024-01-06T05:52:34.062Z,-2.78
2024-01-06T05:55:42.804Z,-2.79
2024-01-06T05:58:32.328Z,-2.84
2024-01-06T06:01:23.878Z,-2.85
2024-01-06T06:04:59.869Z,-2.81
2024-01-06T06:07:30.395Z,-2.77
2024-01-06T06:10:22.577Z,-2.74
2024-01-06T06:13:14.969Z,-2.79
2024-01-06T06:16:06.014Z,-2.80
2024-01-06T06:19:19.950Z,-2.82
2024-01-06T06:22:10.340Z,-2.87
2024-01-06T06:25:11.953Z,-2.88
2024-01-06T06:28:17.402Z,-2.87
2024-01-06T06:31:30.398Z,-2.86
2024-01-06T06:34:27.028Z,-2.80
2024-01-06T06:37:16.885Z,-2.79
2024-01-06T06:40:09.116Z,-2.75
2024-01-06T06:42:58.288Z,-2.71
2024-01-06T06:45:47.870Z,-2.67
2024-01-06T06:48:37.156Z,-2.67
2024-01-06T06:52:16.784Z,-2.66
2024-01-06T06:54:43.603Z,-2.71
2024-01-06T06:57:33.266Z,-2.73
2024-01-06T07:00:45.636Z,-2.73
2024-01-06T07:03:35.462Z,-2.73
2024-01-06T07:06:32.956Z,-2.68
2024-01-06T07:09:24.008Z,-2.66
2024-01-06T07:12:20.133Z,-2.65
2024-01-06T07:15:11.948Z,-2.63
2024-01-06T07:18:01.229Z,-2.60
2024-01-06T07:20:53.387Z,-2.61
2024-01-06T07:23:43.663Z,-2.54
2024-01-06T07:26:35.643Z,-2.48
2024-01-06T07:29:24.854Z,-2.44
2024-01-06T07:32:14.596Z,-2.42
2024-01-06T07:35:07.459Z,-2.44
2024-01-06T07:37:57.959Z,-2.47
2024-01-06T07:40:47.180Z,-2.51
2024-01-06T07:43:36.641Z,-2.54
2024-01-06T07:46:33.087Z,-2.54
2024-01-06T07:49:11.595Z,-2.54
2024-01-06T07:52:03.392Z,-2.53
2024-01-06T07:54:55.456Z,-2.54
2024-01-06T07:57:44.788Z,-2.53
2024-01-06T08:00:45.854Z,-2.55
2024-01-06T08:03:35.564Z,-2.54
2024-01-06T08:06:34.701Z,-2.52
2024-01-06T08:09:24.413Z,-2.49
2024-01-06T08:12:13.084Z,-2.45
2024-01-06T08:15:06.353Z,-2.42
2024-01-06T08:17:59.026Z,-2.41
2024-01-06T08:20:48.222Z,-2.44
2024-01-06T08:23:37.820Z,-2.47
2024-01-06T08:26:33.282Z,-2.46
2024-01-06T08:29:29.216Z,-2.48
2024-01-06T08:32:18.532Z,-2.47
2024-01-06T08:35:10.722Z,-2.43
2024-01-06T08:38:01.976Z,-2.45
2024-01-06T08:40:52.246Z,-2.43
2024-01-06T08:43:40.574Z,-2.41
2024-01-06T08:46:53.703Z,-2.38
2024-01-06T08:49:43.781Z,-2.31
2024-01-06T08:52:32.430Z,-2.28
2024-01-06T08:55:32.124Z,-2.25
2024-01-06T08:58:14.052Z,-2.25
2024-01-06T09:01:04.356Z,-2.22
2024-01-06T09:04:00.619Z,-2.20
2024-01-06T09:06:49.478Z,-2.17
2024-01-06T09:09:38.227Z,-2.13
2024-01-06T09:12:28.133Z,-2.08
2024-01-06T09:15:16.871Z,-2.08
2024-01-06T09:18:08.123Z,-2.08
2024-01-06T09:21:00.410Z,-2.08
2024-01-06T09:23:44.413Z,-2.07
2024-01-06T09:26:37.174Z,-2.08
2024-01-06T09:29:28.283Z,-2.13
2024-01-06T09:32:17.484Z,-2.16
2024-01-06T09:35:06.871Z,-2.18
2024-01-06T09:37:51.714Z,-2.18
2024-01-06T09:40:32.690Z,-2.15
2024-01-06T09:43:36.803Z,-2.12
2024-01-06T09:46:32.402Z,-2.11
2024-01-06T09:49:24.744Z,-2.05
2024-01-06T09:52:22.144Z,-2.01
2024-01-06T09:55:12.047Z,-1.98
2024-01-06T09:58:17.682Z,-1.98
2024-01-06T10:00:59.793Z,-1.97
2024-01-06T10:04:25.116Z,-1.93
2024-01-06T10:07:14.344Z,-1.93
2024-01-06T10:10:03.774Z,-1.91
2024-01-06T10:12:54.206Z,-1.91
2024-01-06T10:15:47.050Z,-1.88
2024-01-06T10:18:36.423Z,-1.84
2024-01-06T10:21:26.752Z,-1.88
2024-01-06T10:24:36.200Z,-1.92
2024-01-06T10:27:24.726Z,-1.93
2024-01-06T10:30:15.131Z,-1.99
2024-01-06T10:33:44.332Z,-2.03
2024-01-06T10:36:34.052Z,-2.04
2024-01-06T10:39:23.036Z,-2.02
2024-01-06T10:42:15.521Z,-2.04
2024-01-06T10:45:10.253Z,-2.04
2024-01-06T10:47:56.157Z,-2.09
2024-01-06T10:50:38.783Z,-2.09
2024-01-06T10:53:37.348Z,-2.03
2024-01-06T10:56:26.754Z,-1.98
2024-01-06T10:59:15.871Z,-1.94
2024-01-06T11:02:06.713Z,-1.92
2024-01-06T11:04:55.315Z,-1.86
2024-01-06T11:07:44.563Z,-1.84
2024-01-06T11:10:33.929Z,-1.82
2024-01-06T11:13:26.862Z,-1.84
2024-01-06T11:17:25.641Z,-1.87
2024-01-06T11:19:48.272Z,-1.90
2024-01-06T11:22:40.533Z,-1.90
2024-01-06T11:25:28.400Z,-1.90
2024-01-06T11:28:18.980Z,-1.93
2024-01-06T11:31:10.398Z,-1.93
2024-01-06T11:34:17.331Z,-1.94
2024-01-06T11:37:09.746Z,-1.95
2024-01-06T11:39:57.107Z,-1.98
2024-01-06T11:42:46.994Z,-2.02
2024-01-06T11:45:42.483Z,-2.03
2024-01-06T11:48:38.310Z,-2.02
2024-01-06T11:51:26.995Z,-2.02
2024-01-06T11:54:26.986Z,-2.00
2024-01-06T11:57:06.478Z,-1.97
2024-01-06T11:59:55.389Z,-1.95
2024-01-06T12:03:10.722Z,-1.94
2024-01-06T12:06:05.200Z,-1.96
2024-01-06T12:09:05.597Z,-2.00
2024-01-06T12:12:02.424Z,-2.00
2024-01-06T12:14:50.537Z,-1.99
2024-01-06T12:17:40.512Z,-2.00
2024-01-06T12:20:32.518Z,-2.01
2024-01-06T12:23:28.269Z,-1.98
2024-01-06T12:26:17.474Z,-1.97
2024-01-06T12:29:05.873Z,-1.95
2024-01-06T12:31:54.422Z,-1.94
2024-01-06T12:34:44.439Z,-1.97
2024-01-06T12:37:34.315Z,-2.00
2024-01-06T12:40:24.254Z,-1.99
2024-01-06T12:43:23.859Z,-1.94
2024-01-06T12:46:13.787Z,-1.90
2024-01-06T12:49:04.675Z,-1.90
2024-01-06T12:51:54.894Z,-1.91
2024-01-06T12:54:46.419Z,-1.91
2024-01-06T12:57:36.628Z,-1.92
2024-01-06T13:00:24.986Z,-1.95
2024-01-06T13:03:15.438Z,-2.02
2024-01-06T13:06:04.045Z,-2.08
2024-01-06T13:08:52.582Z,-2.10
2024-01-06T13:11:39.685Z,-2.09
2024-01-06T13:14:32.130Z,-2.08
2024-01-06T13:17:20.516Z,-2.07
2024-01-06T13:20:10.057Z,-2.10
2024-01-06T13:23:00.682Z,-2.15
2024-01-06T13:27:59.225Z,-2.14
2024-01-06T13:30:52.067Z,-2.20
2024-01-06T13:33:46.764Z,-2.24
2024-01-06T13:36:41.325Z,-2.28
2024-01-06T13:39:37.126Z,-2.29
2024-01-06T13:42:32.198Z,-2.29
2024-01-06T13:45:26.724Z,-2.30
2024-01-06T13:48:20.260Z,-2.29
2024-01-06T13:51:12.949Z,-2.28
2024-01-06T13:54:14.223Z,-2.26
2024-01-06T13:57:08.274Z,-2.29
2024-01-06T14:00:08.906Z,-2.31
2024-01-06T14:03:12.570Z,-2.32
2024-01-06T14:06:08.940Z,-2.36
2024-01-06T14:09:14.623Z,-2.39
2024-01-06T14:11:59.707Z,-2.41
2024-01-06T14:14:51.494Z,-2.42
2024-01-06T14:17:51.343Z,-2.43
2024-01-06T14:21:00.866Z,-2.43
2024-01-06T14:23:55.147Z,-2.43
2024-01-06T14:26:47.821Z,-2.44
2024-01-06T14:29:40.951Z,-2.44
2024-01-06T14:32:36.967Z,-2.46
2024-01-06T14:35:52.901Z,-2.50
2024-01-06T14:38:44.861Z,-2.51
2024-01-06T14:41:39.526Z,-2.51
2024-01-06T14:44:34.557Z,-2.52
2024-01-06T14:47:28.722Z,-2.54
2024-01-06T14:50:42.420Z,-2.54
2024-01-06T14:53:39.648Z,-2.55
2024-01-06T14:56:27.555Z,-2.57
2024-01-06T14:59:21.186Z,-2.60
2024-01-06T15:02:06.639Z,-2.62
2024-01-06T15:05:02.237Z,-2.62
2024-01-06T15:07:50.219Z,-2.60
2024-01-06T15:10:43.021Z,-2.60
2024-01-06T15:13:39.167Z,-2.59
2024-01-06T15:16:34.828Z,-2.60
2024-01-06T15:19:32.637Z,-2.62
2024-01-06T15:22:25.708Z,-2.65
2024-01-06T15:25:19.995Z,-2.68
2024-01-06T15:28:21.572Z,-2.68
2024-01-06T15:31:38.447Z,-2.67
2024-01-06T15:34:35.110Z,-2.65
2024-01-06T15:37:37.723Z,-2.63
2024-01-06T15:40:39.547Z,-2.64
2024-01-06T15:43:36.478Z,-2.66
2024-01-06T15:47:30.745Z,-2.70
2024-01-06T15:49:45.109Z,-2.72
2024-01-06T15:52:38.505Z,-2.76
2024-01-06T15:55:32.231Z,-2.78
2024-01-06T15:58:48.877Z,-2.79
2024-01-06T16:01:54.919Z,-2.79
2024-01-06T16:04:49.085Z,-2.81
2024-01-06T16:07:41.849Z,-2.82
2024-01-06T16:10:42.941Z,-2.84
2024-01-06T16:13:40.053Z,-2.87
2024-01-06T16:16:37.345Z,-2.90
2024-01-06T16:20:21.183Z,-2.91
2024-01-06T16:22:43.896Z,-2.91
2024-01-06T16:26:45.092Z,-2.92
2024-01-06T16:28:58.743Z,-2.94
2024-01-06T16:31:52.214Z,-2.97
2024-01-06T16:34:43.890Z,-2.99
2024-01-06T16:37:39.842Z,-3.02
2024-01-06T16:40:33.473Z,-3.02
2024-01-06T16:43:24.905Z,-3.04
2024-01-06T16:47:15.153Z,-3.05
2024-01-06T16:49:43.133Z,-3.07
2024-01-06T16:52:39.399Z,-3.09
2024-01-06T16:55:32.580Z,-3.11
2024-01-06T16:58:42.356Z,-3.10
2024-01-06T17:01:28.625Z,-3.11
2024-01-06T17:04:21.518Z,-3.12
2024-01-06T17:08:15.884Z,-3.12
2024-01-06T17:10:33.802Z,-3.11
2024-01-06T17:13:27.198Z,-3.14
2024-01-06T17:16:53.277Z,-3.16
2024-01-06T17:19:39.930Z,-3.17
2024-01-06T17:22:46.504Z,-3.16
2024-01-06T17:25:42.164Z,-3.14
2024-01-06T17:28:57.713Z,-3.13
2024-01-06T17:31:51.212Z,-3.15
2024-01-06T17:34:46.650Z,-3.16
2024-01-06T17:37:40.588Z,-3.18
2024-01-06T17:40:26.669Z,-3.20
2024-01-06T17:43:20.930Z,-3.23
2024-01-06T17:46:10.048Z,-3.23
2024-01-06T17:49:05.022Z,-3.22
2024-01-06T17:51:58.500Z,-3.23
2024-01-06T17:54:45.441Z,-3.23
2024-01-06T17:57:40.694Z,-3.24
2024-01-06T18:00:47.455Z,-3.24
2024-01-06T18:03:32.242Z,-3.27
2024-01-06T18:06:34.980Z,-3.28
2024-01-06T18:09:11.143Z,-3.29
2024-01-06T18:12:14.173Z,-3.28
2024-01-06T18:14:57.891Z,-3.29
2024-01-06T18:17:44.534Z,-3.31
2024-01-06T18:20:50.272Z,-3.34
2024-01-06T18:23:44.712Z,-3.37
2024-01-06T18:26:28.824Z,-3.38
2024-01-06T18:29:14.466Z,-3.35
2024-01-06T18:32:13.464Z,-3.34
2024-01-06T18:34:56.941Z,-3.34
2024-01-06T18:37:42.778Z,-3.33
2024-01-06T18:40:39.624Z,-3.34
2024-01-06T18:43:41.150Z,-3.36
2024-01-06T18:46:44.363Z,-3.38
2024-01-06T18:49:27.142Z,-3.40
2024-01-06T18:52:14.297Z,-3.40
2024-01-06T18:55:08.285Z,-3.42
2024-01-06T18:57:56.800Z,-3.42
2024-01-06T19:00:50.658Z,-3.41
2024-01-06T19:04:07.508Z,-3.41
2024-01-06T19:07:00.509Z,-3.42
2024-01-06T19:09:53.540Z,-3.42
2024-01-06T19:12:49.746Z,-3.44
2024-01-06T19:15:56.474Z,-3.46
2024-01-06T19:18:47.618Z,-3.48
2024-01-06T19:21:40.152Z,-3.50
2024-01-06T19:24:43.419Z,-3.51
2024-01-06T19:27:34.658Z,-3.52
2024-01-06T19:30:28.893Z,-3.52
2024-01-06T19:33:33.534Z,-3.52
2024-01-06T19:36:35.613Z,-3.54
2024-01-06T19:39:30.604Z,-3.58
2024-01-06T19:42:14.468Z,-3.60
2024-01-06T19:45:08.144Z,-3.63
2024-01-06T19:48:28.225Z,-3.64
2024-01-06T19:51:22.485Z,-3.66
2024-01-06T19:54:17.760Z,-3.67
2024-01-06T19:57:17.618Z,-3.69
2024-01-06T20:00:15.487Z,-3.72
2024-01-06T20:03:15.311Z,-3.72
2024-01-06T20:06:21.056Z,-3.73
2024-01-06T20:09:14.391Z,-3.73
2024-01-06T20:12:13.283Z,-3.73
2024-01-06T20:14:49.804Z,-3.72
2024-01-06T20:17:42.582Z,-3.72
2024-01-06T20:20:40.602Z,-3.72
2024-01-06T20:23:43.580Z,-3.72
2024-01-06T20:26:40.123Z,-3.76
2024-01-06T20:29:27.880Z,-3.79
2024-01-06T20:32:21.128Z,-3.82
2024-01-06T20:35:14.282Z,-3.83
2024-01-06T20:38:09.613Z,-3.84
2024-01-06T20:41:02.535Z,-3.86
2024-01-06T20:43:43.726Z,-3.89
2024-01-06T20:46:41.092Z,-3.88
2024-01-06T20:49:34.055Z,-3.91
2024-01-06T20:52:28.336Z,-3.94
2024-01-06T20:55:23.349Z,-3.96
2024-01-06T20:58:18.245Z,-3.98
2024-01-06T21:01:17.197Z,-3.98
2024-01-06T21:04:00.898Z,-4.01
2024-01-06T21:06:54.711Z,-4.05
2024-01-06T21:09:49.561Z,-4.09
2024-01-06T21:12:24.524Z,-4.14
2024-01-06T21:15:09.825Z,-4.19
2024-01-06T21:18:15.685Z,-4.22
2024-01-06T21:20:59.703Z,-4.24
2024-01-06T21:23:53.620Z,-4.24
2024-01-06T21:26:49.358Z,-4.26
2024-01-06T21:29:37.937Z,-4.28
2024-01-06T21:32:38.452Z,-4.29
2024-01-06T21:35:33.249Z,-4.33
2024-01-06T21:38:25.936Z,-4.34
2024-01-06T21:41:18.918Z,-4.35
2024-01-06T21:44:15.575Z,-4.37
2024-01-06T21:47:08.706Z,-4.40
2024-01-06T21:50:03.470Z,-4.42
2024-01-06T21:52:58.653Z,-4.45
2024-01-06T21:55:36.518Z,-4.47
2024-01-06T21:58:37.233Z,-4.52
2024-01-06T22:01:48.987Z,-4.54
2024-01-06T22:04:31.248Z,-4.57
2024-01-06T22:07:35.065Z,-4.57
2024-01-06T22:10:34.098Z,-4.57
2024-01-06T22:13:18.900Z,-4.59
2024-01-06T22:16:12.242Z,-4.63
2024-01-06T22:19:39.905Z,-4.66
2024-01-06T22:22:35.150Z,-4.71
2024-01-06T22:25:29.116Z,-4.77
2024-01-06T22:28:21.594Z,-4.79
2024-01-06T22:31:25.762Z,-4.80
2024-01-06T22:34:19.564Z,-4.81
2024-01-06T22:37:09.988Z,-4.86
2024-01-06T22:39:46.139Z,-4.90
2024-01-06T22:42:38.777Z,-4.96
2024-01-06T22:45:33.914Z,-4.98
2024-01-06T22:48:27.027Z,-4.98
2024-01-06T22:51:21.646Z,-5.00
2024-01-06T22:54:18.498Z,-5.01
2024-01-06T22:57:11.008Z,-5.05
2024-01-06T23:00:17.685Z,-5.13
2024-01-06T23:03:16.050Z,-5.17
2024-01-06T23:06:09.582Z,-5.22
2024-01-06T23:09:08.443Z,-5.26
2024-01-06T23:12:07.959Z,-5.31
2024-01-06T23:15:59.977Z,-5.36
2024-01-06T23:18:18.114Z,-5.43
2024-01-06T23:20:50.822Z,-5.50
2024-01-06T23:23:24.079Z,-5.53
2024-01-06T23:26:08.527Z,-5.57
2024-01-06T23:28:50.018Z,-5.61
2024-01-06T23:31:25.675Z,-5.63
2024-01-06T23:34:26.739Z,-5.64
2024-01-06T23:37:11.467Z,-5.66
2024-01-06T23:40:00.114Z,-5.69
2024-01-06T23:42:54.244Z,-5.72
2024-01-06T23:45:58.501Z,-5.76
2024-01-06T23:48:35.398Z,-5.79
2024-01-06T23:54:30.822Z,-5.82
2024-01-06T23:57:12.626Z,-5.85
